sensor_id;sensor_type;location;lat;lon;timestamp;pressure;altitude;pressure_sealevel;temperature;humidity
76586;BME280;65251;51.022;13.736;2023-02-15T00:00:04;100847.44;;;1.01;87.17
76586;BME280;65251;51.022;13.736;2023-02-15T00:00:38;100843.97;;;1.01;87.60
76586;BME280;65251;51.022;13.736;2023-02-15T00:01:10;100853.78;;;0.99;87.52
76586;BME280;65251;51.022;13.736;2023-02-15T00:01:42;100848.38;;;1.00;87.55
76586;BME280;65251;51.022;13.736;2023-02-15T00:02:14;100855.31;;;1.01;87.77
76586;BME280;65251;51.022;13.736;2023-02-15T00:02:44;100845.56;;;1.03;87.63
76586;BME280;65251;51.022;13.736;2023-02-15T00:03:16;100851.75;;;1.02;87.58
76586;BME280;65251;51.022;13.736;2023-02-15T00:03:48;100847.34;;;1.03;87.60
76586;BME280;65251;51.022;13.736;2023-02-15T00:04:21;100861.50;;;1.00;87.54
76586;BME280;65251;51.022;13.736;2023-02-15T00:04:53;100856.06;;;1.03;87.71
76586;BME280;65251;51.022;13.736;2023-02-15T00:05:26;100842.19;;;1.01;87.58
76586;BME280;65251;51.022;13.736;2023-02-15T00:05:57;100846.75;;;0.99;87.77
76586;BME280;65251;51.022;13.736;2023-02-15T00:06:28;100854.47;;;1.01;87.32
76586;BME280;65251;51.022;13.736;2023-02-15T00:07:00;100849.97;;;1.03;87.38
76586;BME280;65251;51.022;13.736;2023-02-15T00:07:31;100854.38;;;1.02;87.47
76586;BME280;65251;51.022;13.736;2023-02-15T00:08:02;100849.88;;;1.04;87.66
76586;BME280;65251;51.022;13.736;2023-02-15T00:08:33;100854.28;;;1.04;87.54
76586;BME280;65251;51.022;13.736;2023-02-15T00:09:04;100849.88;;;1.04;87.37
76586;BME280;65251;51.022;13.736;2023-02-15T00:09:35;100854.28;;;1.04;87.32
76586;BME280;65251;51.022;13.736;2023-02-15T00:10:08;100850.81;;;1.03;87.42
76586;BME280;65251;51.022;13.736;2023-02-15T00:10:39;100852.59;;;1.03;87.43
76586;BME280;65251;51.022;13.736;2023-02-15T00:11:11;100849.13;;;1.02;87.11
76586;BME280;65251;51.022;13.736;2023-02-15T00:11:43;100849.22;;;1.01;87.39
76586;BME280;65251;51.022;13.736;2023-02-15T00:12:20;100853.53;;;1.02;87.48
76586;BME280;65251;51.022;13.736;2023-02-15T00:12:52;100857.09;;;1.01;87.24
76586;BME280;65251;51.022;13.736;2023-02-15T00:13:23;100859.03;;;0.99;87.19
76586;BME280;65251;51.022;13.736;2023-02-15T00:13:54;100847.56;;;1.00;87.17
76586;BME280;65251;51.022;13.736;2023-02-15T00:14:25;100861.50;;;1.00;87.21
76586;BME280;65251;51.022;13.736;2023-02-15T00:14:57;100848.38;;;1.00;87.21
76586;BME280;65251;51.022;13.736;2023-02-15T00:15:27;100848.28;;;1.02;87.10
76586;BME280;65251;51.022;13.736;2023-02-15T00:16:01;100850.81;;;1.03;87.23
76586;BME280;65251;51.022;13.736;2023-02-15T00:16:32;100855.22;;;1.03;87.36
76586;BME280;65251;51.022;13.736;2023-02-15T00:17:04;100865.63;;;1.04;87.25
76586;BME280;65251;51.022;13.736;2023-02-15T00:17:35;100844.81;;;1.01;87.17
76586;BME280;65251;51.022;13.736;2023-02-15T00:18:07;100856.91;;;1.04;87.30
76586;BME280;65251;51.022;13.736;2023-02-15T00:18:39;100849.13;;;1.02;87.06
76586;BME280;65251;51.022;13.736;2023-02-15T00:19:11;100856.91;;;1.04;87.34
76586;BME280;65251;51.022;13.736;2023-02-15T00:19:43;100842.94;;;1.03;87.36
76586;BME280;65251;51.022;13.736;2023-02-15T00:20:14;100839.69;;;1.00;86.97
76586;BME280;65251;51.022;13.736;2023-02-15T00:20:45;100847.34;;;1.03;87.28
76586;BME280;65251;51.022;13.736;2023-02-15T00:21:16;100845.56;;;1.03;87.32
76586;BME280;65251;51.022;13.736;2023-02-15T00:21:48;100842.94;;;1.03;87.29
76586;BME280;65251;51.022;13.736;2023-02-15T00:22:20;100844.81;;;1.01;87.10
76586;BME280;65251;51.022;13.736;2023-02-15T00:22:51;100848.19;;;1.03;87.40
76586;BME280;65251;51.022;13.736;2023-02-15T00:23:22;100842.19;;;1.01;87.28
76586;BME280;65251;51.022;13.736;2023-02-15T00:23:52;100840.41;;;1.02;87.17
76586;BME280;65251;51.022;13.736;2023-02-15T00:24:24;100839.56;;;1.01;87.35
76586;BME280;65251;51.022;13.736;2023-02-15T00:24:55;100842.31;;;1.00;87.18
76586;BME280;65251;51.022;13.736;2023-02-15T00:25:26;100839.69;;;1.00;87.21
76586;BME280;65251;51.022;13.736;2023-02-15T00:26:05;100843.97;;;1.01;87.15
76586;BME280;65251;51.022;13.736;2023-02-15T00:26:38;100847.56;;;1.00;87.21
76586;BME280;65251;51.022;13.736;2023-02-15T00:27:09;100839.56;;;1.01;87.18
76586;BME280;65251;51.022;13.736;2023-02-15T00:27:41;100840.53;;;1.00;87.47
76586;BME280;65251;51.022;13.736;2023-02-15T00:28:13;100838.72;;;1.01;87.16
76586;BME280;65251;51.022;13.736;2023-02-15T00:28:44;100844.94;;;1.00;87.10
76586;BME280;65251;51.022;13.736;2023-02-15T00:29:18;100852.00;;;0.99;87.33
76586;BME280;65251;51.022;13.736;2023-02-15T00:29:49;100841.50;;;0.99;87.35
76586;BME280;65251;51.022;13.736;2023-02-15T00:30:20;100839.81;;;0.98;87.47
76586;BME280;65251;51.022;13.736;2023-02-15T00:30:51;100843.97;;;1.01;87.42
76586;BME280;65251;51.022;13.736;2023-02-15T00:31:22;100839.56;;;1.01;87.29
76586;BME280;65251;51.022;13.736;2023-02-15T00:31:52;100834.44;;;1.00;87.41
76586;BME280;65251;51.022;13.736;2023-02-15T00:32:24;100851.00;;;1.00;87.49
76586;BME280;65251;51.022;13.736;2023-02-15T00:32:55;100837.06;;;1.00;87.54
76586;BME280;65251;51.022;13.736;2023-02-15T00:33:25;100843.97;;;1.01;87.45
76586;BME280;65251;51.022;13.736;2023-02-15T00:34:01;100843.97;;;1.01;87.40
76586;BME280;65251;51.022;13.736;2023-02-15T00:34:33;100841.34;;;1.01;87.47
76586;BME280;65251;51.022;13.736;2023-02-15T00:35:04;100843.03;;;1.02;87.34
76586;BME280;65251;51.022;13.736;2023-02-15T00:35:36;100839.69;;;1.00;87.50
76586;BME280;65251;51.022;13.736;2023-02-15T00:36:10;100838.88;;;0.99;87.63
76586;BME280;65251;51.022;13.736;2023-02-15T00:36:41;100836.09;;;1.01;87.33
76586;BME280;65251;51.022;13.736;2023-02-15T00:37:11;100844.13;;;0.99;87.49
76586;BME280;65251;51.022;13.736;2023-02-15T00:37:43;100839.56;;;1.01;87.39
76586;BME280;65251;51.022;13.736;2023-02-15T00:38:14;100843.16;;;1.00;87.38
76586;BME280;65251;51.022;13.736;2023-02-15T00:38:44;100838.03;;;0.99;87.47
76586;BME280;65251;51.022;13.736;2023-02-15T00:39:17;100844.13;;;0.99;87.38
76586;BME280;65251;51.022;13.736;2023-02-15T00:39:48;100836.25;;;0.99;87.51
76586;BME280;65251;51.022;13.736;2023-02-15T00:40:20;100842.31;;;1.00;87.60
76586;BME280;65251;51.022;13.736;2023-02-15T00:40:52;100842.31;;;1.00;87.31
76586;BME280;65251;51.022;13.736;2023-02-15T00:41:23;100839.81;;;0.98;87.16
76586;BME280;65251;51.022;13.736;2023-02-15T00:41:55;100836.94;;;1.01;87.28
76586;BME280;65251;51.022;13.736;2023-02-15T00:42:26;100840.53;;;1.00;87.25
76586;BME280;65251;51.022;13.736;2023-02-15T00:42:56;100838.72;;;1.01;87.06
76586;BME280;65251;51.022;13.736;2023-02-15T00:43:31;100838.63;;;1.02;87.22
76586;BME280;65251;51.022;13.736;2023-02-15T00:44:03;100839.56;;;1.01;87.29
76586;BME280;65251;51.022;13.736;2023-02-15T00:44:34;100831.69;;;1.01;87.46
76586;BME280;65251;51.022;13.736;2023-02-15T00:45:07;100835.06;;;1.03;87.17
76586;BME280;65251;51.022;13.736;2023-02-15T00:45:38;100831.00;;;0.99;87.14
76586;BME280;65251;51.022;13.736;2023-02-15T00:46:11;100839.69;;;1.00;87.29
76586;BME280;65251;51.022;13.736;2023-02-15T00:46:43;100834.44;;;1.00;87.21
76586;BME280;65251;51.022;13.736;2023-02-15T00:47:14;100830.25;;;0.97;87.48
76586;BME280;65251;51.022;13.736;2023-02-15T00:47:44;100824.91;;;0.99;87.39
76586;BME280;65251;51.022;13.736;2023-02-15T00:48:17;100828.56;;;0.96;87.06
76586;BME280;65251;51.022;13.736;2023-02-15T00:48:49;100827.41;;;1.00;87.24
76586;BME280;65251;51.022;13.736;2023-02-15T00:49:20;100834.31;;;1.01;87.23
76586;BME280;65251;51.022;13.736;2023-02-15T00:49:51;100829.19;;;1.00;87.38
76586;BME280;65251;51.022;13.736;2023-02-15T00:50:22;100827.28;;;1.02;87.37
76586;BME280;65251;51.022;13.736;2023-02-15T00:50:55;100823.94;;;1.00;87.18
76586;BME280;65251;51.022;13.736;2023-02-15T00:51:26;100817.75;;;1.01;87.29
76586;BME280;65251;51.022;13.736;2023-02-15T00:51:58;100828.13;;;1.02;87.33
76586;BME280;65251;51.022;13.736;2023-02-15T00:52:29;100828.97;;;1.03;87.29
76586;BME280;65251;51.022;13.736;2023-02-15T00:53:00;100825.41;;;1.04;87.06
76586;BME280;65251;51.022;13.736;2023-02-15T00:53:31;100824.66;;;1.02;87.16
76586;BME280;65251;51.022;13.736;2023-02-15T00:54:02;100829.91;;;1.02;87.19
76586;BME280;65251;51.022;13.736;2023-02-15T00:54:34;100822.88;;;1.02;87.16
76586;BME280;65251;51.022;13.736;2023-02-15T00:55:06;100819.31;;;1.03;86.98
76586;BME280;65251;51.022;13.736;2023-02-15T00:55:36;100828.13;;;1.02;87.05
76586;BME280;65251;51.022;13.736;2023-02-15T00:56:07;100822.88;;;1.02;86.90
76586;BME280;65251;51.022;13.736;2023-02-15T00:56:39;100822.03;;;1.02;87.11
76586;BME280;65251;51.022;13.736;2023-02-15T00:57:10;100825.50;;;1.02;87.29
76586;BME280;65251;51.022;13.736;2023-02-15T00:57:40;100824.56;;;1.03;87.31
76586;BME280;65251;51.022;13.736;2023-02-15T00:58:13;100824.47;;;1.05;87.10
76586;BME280;65251;51.022;13.736;2023-02-15T00:58:45;100819.41;;;1.02;86.92
76586;BME280;65251;51.022;13.736;2023-02-15T00:59:16;100818.59;;;1.01;87.09
76586;BME280;65251;51.022;13.736;2023-02-15T00:59:48;100825.50;;;1.02;86.96
76586;BME280;65251;51.022;13.736;2023-02-15T01:00:19;100818.69;;;1.00;87.19
76586;BME280;65251;51.022;13.736;2023-02-15T01:00:50;100818.69;;;1.00;86.84
76586;BME280;65251;51.022;13.736;2023-02-15T01:01:22;100822.88;;;1.02;87.27
76586;BME280;65251;51.022;13.736;2023-02-15T01:01:53;100820.38;;;1.01;87.01
76586;BME280;65251;51.022;13.736;2023-02-15T01:02:24;100818.59;;;1.01;87.18
76586;BME280;65251;51.022;13.736;2023-02-15T01:02:56;100820.38;;;1.01;87.07
76586;BME280;65251;51.022;13.736;2023-02-15T01:03:26;100818.59;;;1.01;86.91
76586;BME280;65251;51.022;13.736;2023-02-15T01:03:57;100815.00;;;1.02;87.06
76586;BME280;65251;51.022;13.736;2023-02-15T01:04:28;100815.97;;;1.01;86.89
76586;BME280;65251;51.022;13.736;2023-02-15T01:05:00;100822.16;;;1.00;86.89
76586;BME280;65251;51.022;13.736;2023-02-15T01:05:31;100819.53;;;1.00;87.28
76586;BME280;65251;51.022;13.736;2023-02-15T01:06:03;100815.97;;;1.01;86.84
76586;BME280;65251;51.022;13.736;2023-02-15T01:06:34;100809.75;;;1.02;86.82
76586;BME280;65251;51.022;13.736;2023-02-15T01:07:07;100815.84;;;1.03;87.05
76586;BME280;65251;51.022;13.736;2023-02-15T01:07:38;100814.06;;;1.03;87.00
76586;BME280;65251;51.022;13.736;2023-02-15T01:08:09;100810.72;;;1.01;86.90
76586;BME280;65251;51.022;13.736;2023-02-15T01:08:41;100809.03;;;1.00;87.08
76586;BME280;65251;51.022;13.736;2023-02-15T01:09:12;100817.75;;;1.01;86.82
76586;BME280;65251;51.022;13.736;2023-02-15T01:09:44;100809.75;;;1.02;86.83
76586;BME280;65251;51.022;13.736;2023-02-15T01:10:15;100816.91;;;1.00;86.95
76586;BME280;65251;51.022;13.736;2023-02-15T01:10:47;100806.41;;;1.00;86.80
76586;BME280;65251;51.022;13.736;2023-02-15T01:11:20;100808.31;;;0.98;86.66
76586;BME280;65251;51.022;13.736;2023-02-15T01:11:52;100806.63;;;0.97;86.67
76586;BME280;65251;51.022;13.736;2023-02-15T01:12:23;100815.25;;;0.99;86.59
76586;BME280;65251;51.022;13.736;2023-02-15T01:12:55;100808.19;;;1.00;86.89
76586;BME280;65251;51.022;13.736;2023-02-15T01:13:26;100810.94;;;0.98;86.74
76586;BME280;65251;51.022;13.736;2023-02-15T01:13:59;100804.75;;;0.99;86.66
76586;BME280;65251;51.022;13.736;2023-02-15T01:14:30;100809.16;;;0.99;86.64
76586;BME280;65251;51.022;13.736;2023-02-15T01:15:01;100808.44;;;0.97;86.74
76586;BME280;65251;51.022;13.736;2023-02-15T01:15:34;100800.44;;;0.98;86.44
76586;BME280;65251;51.022;13.736;2023-02-15T01:16:05;100810.22;;;0.96;86.84
76586;BME280;65251;51.022;13.736;2023-02-15T01:16:35;100806.00;;;0.94;86.59
76586;BME280;65251;51.022;13.736;2023-02-15T01:17:07;100810.31;;;0.95;86.72
76586;BME280;65251;51.022;13.736;2023-02-15T01:17:38;100799.06;;;0.93;86.68
76586;BME280;65251;51.022;13.736;2023-02-15T01:18:08;100806.00;;;0.94;86.70
76586;BME280;65251;51.022;13.736;2023-02-15T01:18:39;100801.69;;;0.93;86.66
76586;BME280;65251;51.022;13.736;2023-02-15T01:19:11;100804.31;;;0.93;86.72
76586;BME280;65251;51.022;13.736;2023-02-15T01:19:42;100804.31;;;0.93;86.57
76586;BME280;65251;51.022;13.736;2023-02-15T01:20:13;100804.31;;;0.93;86.50
76586;BME280;65251;51.022;13.736;2023-02-15T01:20:45;100799.28;;;0.90;86.66
76586;BME280;65251;51.022;13.736;2023-02-15T01:21:18;100805.28;;;0.92;86.74
76586;BME280;65251;51.022;13.736;2023-02-15T01:21:49;100797.50;;;0.90;86.60
76586;BME280;65251;51.022;13.736;2023-02-15T01:22:21;100799.19;;;0.91;86.62
76586;BME280;65251;51.022;13.736;2023-02-15T01:22:52;100796.66;;;0.90;86.66
76586;BME280;65251;51.022;13.736;2023-02-15T01:23:23;100799.28;;;0.90;86.80
76586;BME280;65251;51.022;13.736;2023-02-15T01:23:54;100805.38;;;0.90;86.57
76586;BME280;65251;51.022;13.736;2023-02-15T01:24:25;100807.06;;;0.91;86.51
76586;BME280;65251;51.022;13.736;2023-02-15T01:24:56;100807.16;;;0.90;86.64
76586;BME280;65251;51.022;13.736;2023-02-15T01:25:27;100803.69;;;0.89;86.70
76586;BME280;65251;51.022;13.736;2023-02-15T01:26:01;100807.91;;;0.92;86.76
76586;BME280;65251;51.022;13.736;2023-02-15T01:26:32;100803.69;;;0.89;86.55
76586;BME280;65251;51.022;13.736;2023-02-15T01:27:02;100808.09;;;0.89;86.70
76586;BME280;65251;51.022;13.736;2023-02-15T01:27:34;100802.75;;;0.90;86.73
76586;BME280;65251;51.022;13.736;2023-02-15T01:28:05;100808.09;;;0.89;86.82
76586;BME280;65251;51.022;13.736;2023-02-15T01:28:36;100802.00;;;0.88;86.80
76586;BME280;65251;51.022;13.736;2023-02-15T01:29:10;100804.44;;;0.91;86.68
76586;BME280;65251;51.022;13.736;2023-02-15T01:29:40;100805.56;;;0.87;86.49
76586;BME280;65251;51.022;13.736;2023-02-15T01:30:12;100810.72;;;0.89;86.83
76586;BME280;65251;51.022;13.736;2023-02-15T01:30:43;100809.88;;;0.88;86.78
76586;BME280;65251;51.022;13.736;2023-02-15T01:31:17;100795.94;;;0.88;87.13
76586;BME280;65251;51.022;13.736;2023-02-15T01:31:48;100805.56;;;0.87;86.82
76586;BME280;65251;51.022;13.736;2023-02-15T01:32:19;100808.19;;;0.87;86.76
76586;BME280;65251;51.022;13.736;2023-02-15T01:32:51;100805.56;;;0.87;86.94
76586;BME280;65251;51.022;13.736;2023-02-15T01:33:22;100800.44;;;0.86;87.08
76586;BME280;65251;51.022;13.736;2023-02-15T01:33:52;100806.63;;;0.85;86.83
76586;BME280;65251;51.022;13.736;2023-02-15T01:34:24;100802.97;;;0.87;87.08
76586;BME280;65251;51.022;13.736;2023-02-15T01:34:55;100798.00;;;0.83;87.00
76586;BME280;65251;51.022;13.736;2023-02-15T01:35:26;100807.38;;;0.87;87.23
76586;BME280;65251;51.022;13.736;2023-02-15T01:35:57;100797.81;;;0.86;87.06
76586;BME280;65251;51.022;13.736;2023-02-15T01:36:29;100803.78;;;0.88;87.13
76586;BME280;65251;51.022;13.736;2023-02-15T01:37:00;100804.75;;;0.87;87.08
76586;BME280;65251;51.022;13.736;2023-02-15T01:37:32;100801.28;;;0.86;87.19
76586;BME280;65251;51.022;13.736;2023-02-15T01:38:04;100802.13;;;0.87;87.03
76586;BME280;65251;51.022;13.736;2023-02-15T01:38:35;100798.75;;;0.85;87.00
76586;BME280;65251;51.022;13.736;2023-02-15T01:39:06;100807.56;;;0.84;87.17
76586;BME280;65251;51.022;13.736;2023-02-15T01:39:38;100791.81;;;0.84;87.29
76586;BME280;65251;51.022;13.736;2023-02-15T01:40:13;100797.91;;;0.84;87.47
76586;BME280;65251;51.022;13.736;2023-02-15T01:40:44;100784.69;;;0.86;87.51
76586;BME280;65251;51.022;13.736;2023-02-15T01:41:16;100791.72;;;0.85;87.52
76586;BME280;65251;51.022;13.736;2023-02-15T01:41:57;100786.38;;;0.87;87.68
76586;BME280;65251;51.022;13.736;2023-02-15T01:42:29;100798.56;;;0.88;87.58
76586;BME280;65251;51.022;13.736;2023-02-15T01:42:59;100789.84;;;0.87;87.51
76586;BME280;65251;51.022;13.736;2023-02-15T01:43:39;100782.06;;;0.86;87.59
76586;BME280;65251;51.022;13.736;2023-02-15T01:45:31;100783.00;;;0.85;87.54
76586;BME280;65251;51.022;13.736;2023-02-15T01:46:02;100790.03;;;0.84;87.30
76586;BME280;65251;51.022;13.736;2023-02-15T01:46:36;100783.84;;;0.85;87.63
76586;BME280;65251;51.022;13.736;2023-02-15T01:47:12;100785.63;;;0.85;87.75
76586;BME280;65251;51.022;13.736;2023-02-15T01:47:47;100783.00;;;0.85;87.80
76586;BME280;65251;51.022;13.736;2023-02-15T01:48:24;100784.59;;;0.87;87.67
76586;BME280;65251;51.022;13.736;2023-02-15T01:49:03;100786.47;;;0.85;87.43
76586;BME280;65251;51.022;13.736;2023-02-15T01:49:34;100786.47;;;0.85;87.55
76586;BME280;65251;51.022;13.736;2023-02-15T01:50:12;100784.69;;;0.86;87.58
76586;BME280;65251;51.022;13.736;2023-02-15T01:50:49;100781.13;;;0.87;87.77
76586;BME280;65251;51.022;13.736;2023-02-15T01:51:24;100787.22;;;0.87;87.62
76586;BME280;65251;51.022;13.736;2023-02-15T01:51:57;100781.97;;;0.87;87.52
76586;BME280;65251;51.022;13.736;2023-02-15T01:52:30;100781.88;;;0.89;87.41
76586;BME280;65251;51.022;13.736;2023-02-15T01:53:07;100777.56;;;0.88;87.59
76586;BME280;65251;51.022;13.736;2023-02-15T01:53:45;100774.94;;;0.88;87.63
76586;BME280;65251;51.022;13.736;2023-02-15T01:54:25;100780.19;;;0.88;87.36
76586;BME280;65251;51.022;13.736;2023-02-15T01:54:58;100770.44;;;0.90;87.54
76586;BME280;65251;51.022;13.736;2023-02-15T01:55:33;100775.47;;;0.93;87.46
76586;BME280;65251;51.022;13.736;2023-02-15T01:56:10;100777.56;;;0.88;87.55
76586;BME280;65251;51.022;13.736;2023-02-15T01:56:42;100781.88;;;0.89;87.29
76586;BME280;65251;51.022;13.736;2023-02-15T01:57:19;100767.16;;;0.86;87.34
76586;BME280;65251;51.022;13.736;2023-02-15T01:57:53;100773.25;;;0.87;87.29
76586;BME280;65251;51.022;13.736;2023-02-15T01:58:27;100761.28;;;0.83;87.65
76586;BME280;65251;51.022;13.736;2023-02-15T01:59:07;100766.97;;;0.89;87.44
76586;BME280;65251;51.022;13.736;2023-02-15T01:59:44;100767.91;;;0.88;87.31
76586;BME280;65251;51.022;13.736;2023-02-15T02:00:18;100760.88;;;0.89;87.53
76586;BME280;65251;51.022;13.736;2023-02-15T02:00:52;100766.13;;;0.89;87.33
76586;BME280;65251;51.022;13.736;2023-02-15T02:01:25;100767.06;;;0.88;87.07
76586;BME280;65251;51.022;13.736;2023-02-15T02:01:59;100747.13;;;0.85;87.22
76586;BME280;65251;51.022;13.736;2023-02-15T02:02:33;100761.09;;;0.86;87.07
76586;BME280;65251;51.022;13.736;2023-02-15T02:03:04;100755.63;;;0.89;86.98
76586;BME280;65251;51.022;13.736;2023-02-15T02:03:43;100759.19;;;0.88;86.81
76586;BME280;65251;51.022;13.736;2023-02-15T02:04:25;100765.28;;;0.88;87.02
76586;BME280;65251;51.022;13.736;2023-02-15T02:05:03;100769.69;;;0.88;87.03
76586;BME280;65251;51.022;13.736;2023-02-15T02:05:37;100759.31;;;0.86;87.11
76586;BME280;65251;51.022;13.736;2023-02-15T02:06:10;100759.31;;;0.86;87.08
76586;BME280;65251;51.022;13.736;2023-02-15T02:06:41;100759.41;;;0.85;87.01
76586;BME280;65251;51.022;13.736;2023-02-15T02:07:13;100747.88;;;0.87;87.05
76586;BME280;65251;51.022;13.736;2023-02-15T02:07:46;100753.09;;;0.87;87.01
76586;BME280;65251;51.022;13.736;2023-02-15T02:08:20;100753.09;;;0.87;86.78
76586;BME280;65251;51.022;13.736;2023-02-15T02:08:51;100757.50;;;0.87;86.70
76586;BME280;65251;51.022;13.736;2023-02-15T02:09:22;100747.88;;;0.87;86.76
76586;BME280;65251;51.022;13.736;2023-02-15T02:09:54;100749.75;;;0.85;86.69
76586;BME280;65251;51.022;13.736;2023-02-15T02:10:25;100745.25;;;0.87;86.99
76586;BME280;65251;51.022;13.736;2023-02-15T02:10:56;100744.50;;;0.85;86.85
76586;BME280;65251;51.022;13.736;2023-02-15T02:11:28;100746.06;;;0.88;87.04
76586;BME280;65251;51.022;13.736;2023-02-15T02:12:00;100746.06;;;0.88;86.76
76586;BME280;65251;51.022;13.736;2023-02-15T02:12:32;100748.59;;;0.89;86.97
76586;BME280;65251;51.022;13.736;2023-02-15T02:13:06;100755.72;;;0.87;87.03
76586;BME280;65251;51.022;13.736;2023-02-15T02:13:37;100746.91;;;0.88;86.86
76586;BME280;65251;51.022;13.736;2023-02-15T02:14:08;100743.44;;;0.88;86.66
76586;BME280;65251;51.022;13.736;2023-02-15T02:14:41;100748.81;;;0.86;86.93
76586;BME280;65251;51.022;13.736;2023-02-15T02:15:13;100749.75;;;0.85;86.77
76586;BME280;65251;51.022;13.736;2023-02-15T02:15:54;100747.13;;;0.85;86.82
76586;BME280;65251;51.022;13.736;2023-02-15T02:16:35;100746.38;;;0.83;86.63
76586;BME280;65251;51.022;13.736;2023-02-15T02:17:17;100744.50;;;0.85;86.85
76586;BME280;65251;51.022;13.736;2023-02-15T02:18:02;100739.34;;;0.84;86.82
76586;BME280;65251;51.022;13.736;2023-02-15T02:18:45;100743.75;;;0.83;86.81
76586;BME280;65251;51.022;13.736;2023-02-15T02:21:39;100740.41;;;0.81;86.57
76586;BME280;65251;51.022;13.736;2023-02-15T02:22:59;100734.31;;;0.81;86.94
76586;BME280;65251;51.022;13.736;2023-02-15T02:24:08;100739.56;;;0.81;86.57
76586;BME280;65251;51.022;13.736;2023-02-15T02:25:10;100732.66;;;0.80;86.73
76586;BME280;65251;51.022;13.736;2023-02-15T02:26:07;100738.88;;;0.79;86.57
76586;BME280;65251;51.022;13.736;2023-02-15T02:27:16;100746.00;;;0.77;86.61
76586;BME280;65251;51.022;13.736;2023-02-15T02:28:02;100736.44;;;0.76;86.64
76586;BME280;65251;51.022;13.736;2023-02-15T02:29:00;100743.47;;;0.75;87.00
76586;BME280;65251;51.022;13.736;2023-02-15T02:30:06;100740.13;;;0.73;86.87
76586;BME280;65251;51.022;13.736;2023-02-15T02:31:12;100732.25;;;0.73;87.03
76586;BME280;65251;51.022;13.736;2023-02-15T02:32:14;100740.22;;;0.72;87.21
76586;BME280;65251;51.022;13.736;2023-02-15T02:33:17;100740.13;;;0.73;87.11
76586;BME280;65251;51.022;13.736;2023-02-15T02:33:59;100740.13;;;0.73;87.18
76586;BME280;65251;51.022;13.736;2023-02-15T02:34:42;100744.31;;;0.76;87.04
76586;BME280;65251;51.022;13.736;2023-02-15T02:35:23;100737.06;;;0.79;86.98
76586;BME280;65251;51.022;13.736;2023-02-15T02:36:05;100732.88;;;0.77;86.87
76586;BME280;65251;51.022;13.736;2023-02-15T02:36:46;100732.03;;;0.76;87.21
76586;BME280;65251;51.022;13.736;2023-02-15T02:37:26;100734.56;;;0.78;87.47
76586;BME280;65251;51.022;13.736;2023-02-15T02:38:10;100734.56;;;0.78;87.26
76586;BME280;65251;51.022;13.736;2023-02-15T02:39:03;100738.03;;;0.78;87.21
76586;BME280;65251;51.022;13.736;2023-02-15T02:39:46;100730.06;;;0.80;87.06
76586;BME280;65251;51.022;13.736;2023-02-15T02:40:23;100731.19;;;0.76;87.15
76586;BME280;65251;51.022;13.736;2023-02-15T02:41:07;100735.59;;;0.75;87.03
76586;BME280;65251;51.022;13.736;2023-02-15T02:41:51;100732.03;;;0.76;87.34
76586;BME280;65251;51.022;13.736;2023-02-15T02:42:35;100726.69;;;0.78;87.25
76586;BME280;65251;51.022;13.736;2023-02-15T02:43:17;100735.41;;;0.78;87.28
76586;BME280;65251;51.022;13.736;2023-02-15T02:43:57;100724.28;;;0.75;87.12
76586;BME280;65251;51.022;13.736;2023-02-15T02:44:40;100724.16;;;0.76;87.30
76586;BME280;65251;51.022;13.736;2023-02-15T02:45:20;100722.38;;;0.77;87.53
76586;BME280;65251;51.022;13.736;2023-02-15T02:46:00;100726.78;;;0.76;87.25
76586;BME280;65251;51.022;13.736;2023-02-15T02:46:39;100720.72;;;0.76;87.12
76586;BME280;65251;51.022;13.736;2023-02-15T02:47:18;100725.00;;;0.77;87.19
76586;BME280;65251;51.022;13.736;2023-02-15T02:47:58;100726.91;;;0.75;87.25
76586;BME280;65251;51.022;13.736;2023-02-15T02:48:32;100725.00;;;0.77;86.98
76586;BME280;65251;51.022;13.736;2023-02-15T02:49:03;100723.22;;;0.77;87.00
76586;BME280;65251;51.022;13.736;2023-02-15T02:49:37;100729.22;;;0.79;87.21
76586;BME280;65251;51.022;13.736;2023-02-15T02:50:13;100725.13;;;0.75;87.31
76586;BME280;65251;51.022;13.736;2023-02-15T02:50:44;100730.38;;;0.75;87.02
76586;BME280;65251;51.022;13.736;2023-02-15T02:51:15;100729.53;;;0.75;87.28
76586;BME280;65251;51.022;13.736;2023-02-15T02:51:58;100721.66;;;0.75;87.22
76586;BME280;65251;51.022;13.736;2023-02-15T02:52:37;100728.56;;;0.76;87.20
76586;BME280;65251;51.022;13.736;2023-02-15T02:53:10;100738.22;;;0.75;87.06
76586;BME280;65251;51.022;13.736;2023-02-15T02:53:41;100730.25;;;0.77;87.04
76586;BME280;65251;51.022;13.736;2023-02-15T02:54:12;100724.16;;;0.76;87.21
76586;BME280;65251;51.022;13.736;2023-02-15T02:54:43;100727.75;;;0.75;86.83
76586;BME280;65251;51.022;13.736;2023-02-15T02:55:22;100722.50;;;0.75;87.06
76586;BME280;65251;51.022;13.736;2023-02-15T02:55:59;100719.88;;;0.75;86.84
76586;BME280;65251;51.022;13.736;2023-02-15T02:56:38;100723.44;;;0.74;87.12
76586;BME280;65251;51.022;13.736;2023-02-15T02:57:12;100717.34;;;0.74;86.81
76586;BME280;65251;51.022;13.736;2023-02-15T02:57:51;100720.72;;;0.76;87.05
76586;BME280;65251;51.022;13.736;2023-02-15T02:58:30;100719.88;;;0.75;86.81
76586;BME280;65251;51.022;13.736;2023-02-15T02:59:08;100714.72;;;0.74;86.75
76586;BME280;65251;51.022;13.736;2023-02-15T02:59:46;100719.13;;;0.73;86.88
76586;BME280;65251;51.022;13.736;2023-02-15T03:00:20;100716.50;;;0.73;86.75
76586;BME280;65251;51.022;13.736;2023-02-15T03:00:55;100721.75;;;0.73;86.74
76586;BME280;65251;51.022;13.736;2023-02-15T03:01:33;100713.03;;;0.73;86.77
76586;BME280;65251;51.022;13.736;2023-02-15T03:02:10;100724.28;;;0.75;86.87
76586;BME280;65251;51.022;13.736;2023-02-15T03:02:46;100712.09;;;0.74;86.90
76586;BME280;65251;51.022;13.736;2023-02-15T03:03:26;100718.94;;;0.76;86.71